sensor_id;sensor_type;location;lat;lon;timestamp;temperature;humidity
68977;SHT31;56029;52.568;13.588;2022-12-17T00:01:59;-2.66;99.99
68977;SHT31;56029;52.568;13.588;2022-12-17T00:04:44;-2.68;99.99
68977;SHT31;56029;52.568;13.588;2022-12-17T00:07:28;-2.61;99.99
68977;SHT31;56029;52.568;13.588;2022-12-17T00:10:12;-2.62;99.99
68977;SHT31;56029;52.568;13.588;2022-12-17T00:12:56;-2.56;99.99
68977;SHT31;56029;52.568;13.588;2022-12-17T00:15:40;-2.58;99.99
68977;SHT31;56029;52.568;13.588;2022-12-17T00:18:25;-2.55;99.99
68977;SHT31;56029;52.568;13.588;2022-12-17T00:21:09;-2.59;99.99
68977;SHT31;56029;52.568;13.588;2022-12-17T00:23:53;-2.56;99.99
68977;SHT31;56029;52.568;13.588;2022-12-17T00:26:38;-2.55;99.99
68977;SHT31;56029;52.568;13.588;2022-12-17T00:29:22;-2.58;99.99
68977;SHT31;56029;52.568;13.588;2022-12-17T00:32:07;-2.55;99.99
68977;SHT31;56029;52.568;13.588;2022-12-17T00:34:55;-2.56;99.99
68977;SHT31;56029;52.568;13.588;2022-12-17T00:37:39;-2.53;99.99
68977;SHT31;56029;52.568;13.588;2022-12-17T00:40:23;-2.55;99.99
68977;SHT31;56029;52.568;13.588;2022-12-17T00:43:10;-2.58;99.99
68977;SHT31;56029;52.568;13.588;2022-12-17T00:45:55;-2.56;99.99
68977;SHT31;56029;52.568;13.588;2022-12-17T00:48:39;-2.55;99.99
68977;SHT31;56029;52.568;13.588;2022-12-17T00:51:24;-2.53;99.99
68977;SHT31;56029;52.568;13.588;2022-12-17T00:54:09;-2.51;99.99
68977;SHT31;56029;52.568;13.588;2022-12-17T00:56:53;-2.51;99.99
68977;SHT31;56029;52.568;13.588;2022-12-17T00:59:37;-2.55;99.99
68977;SHT31;56029;52.568;13.588;2022-12-17T01:02:22;-2.55;99.99
68977;SHT31;56029;52.568;13.588;2022-12-17T01:05:06;-2.52;99.99
68977;SHT31;56029;52.568;13.588;2022-12-17T01:07:51;-2.51;99.99
68977;SHT31;56029;52.568;13.588;2022-12-17T01:10:36;-2.49;99.99
68977;SHT31;56029;52.568;13.588;2022-12-17T01:13:23;-2.49;99.99
68977;SHT31;56029;52.568;13.588;2022-12-17T01:16:10;-2.48;99.99
68977;SHT31;56029;52.568;13.588;2022-12-17T01:18:55;-2.48;99.99
68977;SHT31;56029;52.568;13.588;2022-12-17T01:21:40;-2.48;99.99
68977;SHT31;56029;52.568;13.588;2022-12-17T01:24:25;-2.51;99.99
68977;SHT31;56029;52.568;13.588;2022-12-17T01:27:09;-2.51;99.99
68977;SHT31;56029;52.568;13.588;2022-12-17T01:29:57;-2.49;99.99
68977;SHT31;56029;52.568;13.588;2022-12-17T01:32:41;-2.52;99.99
68977;SHT31;56029;52.568;13.588;2022-12-17T01:35:25;-2.52;99.99
68977;SHT31;56029;52.568;13.588;2022-12-17T01:38:11;-2.53;99.99
68977;SHT31;56029;52.568;13.588;2022-12-17T01:40:55;-2.52;99.99
68977;SHT31;56029;52.568;13.588;2022-12-17T01:43:39;-2.55;99.99
68977;SHT31;56029;52.568;13.588;2022-12-17T01:46:25;-2.52;99.99
68977;SHT31;56029;52.568;13.588;2022-12-17T01:49:10;-2.51;99.99
68977;SHT31;56029;52.568;13.588;2022-12-17T01:51:55;-2.52;99.99
68977;SHT31;56029;52.568;13.588;2022-12-17T01:54:39;-2.49;99.99
68977;SHT31;56029;52.568;13.588;2022-12-17T01:57:24;-2.53;99.99
68977;SHT31;56029;52.568;13.588;2022-12-17T02:00:11;-2.52;99.99
68977;SHT31;56029;52.568;13.588;2022-12-17T02:02:57;-2.53;99.99
68977;SHT31;56029;52.568;13.588;2022-12-17T02:06:06;-2.51;99.99
68977;SHT31;56029;52.568;13.588;2022-12-17T02:09:06;-2.49;99.99
68977;SHT31;56029;52.568;13.588;2022-12-17T02:15:00;-2.53;99.99
68977;SHT31;56029;52.568;13.588;2022-12-17T02:17:51;-2.49;99.99
68977;SHT31;56029;52.568;13.588;2022-12-17T02:20:44;-2.53;99.99
68977;SHT31;56029;52.568;13.588;2022-12-17T02:23:43;-2.51;99.99
68977;SHT31;56029;52.568;13.588;2022-12-17T02:26:40;-2.49;99.99
68977;SHT31;56029;52.568;13.588;2022-12-17T02:29:29;-2.51;99.99
68977;SHT31;56029;52.568;13.588;2022-12-17T02:32:17;-2.49;99.99
68977;SHT31;56029;52.568;13.588;2022-12-17T02:35:05;-2.48;99.99
68977;SHT31;56029;52.568;13.588;2022-12-17T02:37:53;-2.46;99.99
68977;SHT31;56029;52.568;13.588;2022-12-17T02:40:38;-2.49;99.99
68977;SHT31;56029;52.568;13.588;2022-12-17T02:43:39;-2.53;99.99
68977;SHT31;56029;52.568;13.588;2022-12-17T02:46:23;-2.53;99.99
68977;SHT31;56029;52.568;13.588;2022-12-17T02:49:07;-2.56;99.99
68977;SHT31;56029;52.568;13.588;2022-12-17T02:51:52;-2.55;99.99
68977;SHT31;56029;52.568;13.588;2022-12-17T02:54:36;-2.58;99.99
68977;SHT31;56029;52.568;13.588;2022-12-17T02:57:21;-2.55;99.99
68977;SHT31;56029;52.568;13.588;2022-12-17T03:00:05;-2.58;99.99
68977;SHT31;56029;52.568;13.588;2022-12-17T03:02:49;-2.58;99.99
68977;SHT31;56029;52.568;13.588;2022-12-17T03:05:34;-2.58;99.99
68977;SHT31;56029;52.568;13.588;2022-12-17T03:08:18;-2.59;99.99
68977;SHT31;56029;52.568;13.588;2022-12-17T03:11:02;-2.63;99.99
68977;SHT31;56029;52.568;13.588;2022-12-17T03:13:46;-2.66;99.99
68977;SHT31;56029;52.568;13.588;2022-12-17T03:16:30;-2.66;99.99
68977;SHT31;56029;52.568;13.588;2022-12-17T03:19:14;-2.72;99.99
68977;SHT31;56029;52.568;13.588;2022-12-17T03:21:59;-2.73;99.99
68977;SHT31;56029;52.568;13.588;2022-12-17T03:24:43;-2.72;99.99
68977;SHT31;56029;52.568;13.588;2022-12-17T03:27:28;-2.72;99.99
68977;SHT31;56029;52.568;13.588;2022-12-17T03:30:12;-2.72;99.99
68977;SHT31;56029;52.568;13.588;2022-12-17T03:32:56;-2.72;99.99
68977;SHT31;56029;52.568;13.588;2022-12-17T03:35:40;-2.72;99.99
68977;SHT31;56029;52.568;13.588;2022-12-17T03:38:24;-2.72;99.99
68977;SHT31;56029;52.568;13.588;2022-12-17T03:41:08;-2.79;99.99
68977;SHT31;56029;52.568;13.588;2022-12-17T03:43:54;-2.79;99.99
68977;SHT31;56029;52.568;13.588;2022-12-17T03:46:38;-2.76;99.99
68977;SHT31;56029;52.568;13.588;2022-12-17T03:49:22;-2.76;99.99
68977;SHT31;56029;52.568;13.588;2022-12-17T03:52:07;-2.77;99.99
68977;SHT31;56029;52.568;13.588;2022-12-17T03:54:52;-2.79;99.99
68977;SHT31;56029;52.568;13.588;2022-12-17T03:57:36;-2.76;99.99
68977;SHT31;56029;52.568;13.588;2022-12-17T04:00:20;-2.76;99.99
68977;SHT31;56029;52.568;13.588;2022-12-17T04:03:05;-2.82;99.99
68977;SHT31;56029;52.568;13.588;2022-12-17T04:05:49;-2.83;99.99
68977;SHT31;56029;52.568;13.588;2022-12-17T04:08:33;-2.86;99.99
68977;SHT31;56029;52.568;13.588;2022-12-17T04:11:17;-2.89;99.99
68977;SHT31;56029;52.568;13.588;2022-12-17T04:14:01;-2.86;99.99
68977;SHT31;56029;52.568;13.588;2022-12-17T04:16:45;-2.90;99.99
68977;SHT31;56029;52.568;13.588;2022-12-17T04:19:29;-2.90;99.99
68977;SHT31;56029;52.568;13.588;2022-12-17T04:22:13;-2.91;99.99
68977;SHT31;56029;52.568;13.588;2022-12-17T04:24:58;-2.93;99.99
68977;SHT31;56029;52.568;13.588;2022-12-17T04:27:42;-2.91;99.99
68977;SHT31;56029;52.568;13.588;2022-12-17T04:30:26;-2.89;99.99
68977;SHT31;56029;52.568;13.588;2022-12-17T04:33:10;-2.91;99.99
68977;SHT31;56029;52.568;13.588;2022-12-17T04:35:55;-2.89;99.99
68977;SHT31;56029;52.568;13.588;2022-12-17T04:38:39;-2.91;99.99
68977;SHT31;56029;52.568;13.588;2022-12-17T04:41:23;-2.87;99.99
68977;SHT31;56029;52.568;13.588;2022-12-17T04:44:07;-2.86;99.99
68977;SHT31;56029;52.568;13.588;2022-12-17T04:46:51;-2.91;99.99
68977;SHT31;56029;52.568;13.588;2022-12-17T04:49:35;-2.94;99.99
68977;SHT31;56029;52.568;13.588;2022-12-17T04:52:19;-3.00;99.99
68977;SHT31;56029;52.568;13.588;2022-12-17T04:55:04;-3.01;99.99
68977;SHT31;56029;52.568;13.588;2022-12-17T04:57:48;-3.07;99.99
68977;SHT31;56029;52.568;13.588;2022-12-17T05:00:32;-3.01;99.99
68977;SHT31;56029;52.568;13.588;2022-12-17T05:03:16;-3.05;99.99
68977;SHT31;56029;52.568;13.588;2022-12-17T05:06:01;-3.07;99.99
68977;SHT31;56029;52.568;13.588;2022-12-17T05:08:45;-3.07;99.99
68977;SHT31;56029;52.568;13.588;2022-12-17T05:11:29;-3.11;99.99
68977;SHT31;56029;52.568;13.588;2022-12-17T05:14:16;-3.14;99.99
68977;SHT31;56029;52.568;13.588;2022-12-17T05:17:00;-3.21;99.99
68977;SHT31;56029;52.568;13.588;2022-12-17T05:19:44;-3.17;99.99
68977;SHT31;56029;52.568;13.588;2022-12-17T05:22:29;-3.21;99.99
68977;SHT31;56029;52.568;13.588;2022-12-17T05:25:13;-3.17;99.99
68977;SHT31;56029;52.568;13.588;2022-12-17T05:27:58;-3.20;99.99
68977;SHT31;56029;52.568;13.588;2022-12-17T05:30:42;-3.24;99.99
68977;SHT31;56029;52.568;13.588;2022-12-17T05:33:26;-3.25;99.99
68977;SHT31;56029;52.568;13.588;2022-12-17T05:36:10;-3.27;99.99
68977;SHT31;56029;52.568;13.588;2022-12-17T05:38:55;-3.35;99.99
68977;SHT31;56029;52.568;13.588;2022-12-17T05:41:39;-3.31;99.99
68977;SHT31;56029;52.568;13.588;2022-12-17T05:44:26;-3.32;99.99
68977;SHT31;56029;52.568;13.588;2022-12-17T05:47:10;-3.28;99.99
68977;SHT31;56029;52.568;13.588;2022-12-17T05:49:54;-3.27;99.99
68977;SHT31;56029;52.568;13.588;2022-12-17T05:52:38;-3.25;99.99
68977;SHT31;56029;52.568;13.588;2022-12-17T05:55:23;-3.24;99.99
68977;SHT31;56029;52.568;13.588;2022-12-17T05:58:09;-3.28;99.99
68977;SHT31;56029;52.568;13.588;2022-12-17T06:01:00;-3.30;99.99
68977;SHT31;56029;52.568;13.588;2022-12-17T06:03:45;-3.28;99.99
68977;SHT31;56029;52.568;13.588;2022-12-17T06:06:30;-3.34;99.99
68977;SHT31;56029;52.568;13.588;2022-12-17T06:09:14;-3.44;99.99
68977;SHT31;56029;52.568;13.588;2022-12-17T06:11:59;-3.40;99.99
68977;SHT31;56029;52.568;13.588;2022-12-17T06:14:50;-3.41;99.99
68977;SHT31;56029;52.568;13.588;2022-12-17T06:17:34;-3.40;99.99
68977;SHT31;56029;52.568;13.588;2022-12-17T06:20:18;-3.41;99.99
68977;SHT31;56029;52.568;13.588;2022-12-17T06:23:06;-3.44;99.99
68977;SHT31;56029;52.568;13.588;2022-12-17T06:25:54;-3.44;99.99
68977;SHT31;56029;52.568;13.588;2022-12-17T06:28:43;-3.45;99.99
68977;SHT31;56029;52.568;13.588;2022-12-17T06:31:27;-3.41;99.99
68977;SHT31;56029;52.568;13.588;2022-12-17T06:34:12;-3.40;99.99
68977;SHT31;56029;52.568;13.588;2022-12-17T06:37:07;-3.38;99.99
68977;SHT31;56029;52.568;13.588;2022-12-17T06:39:51;-3.32;99.99
68977;SHT31;56029;52.568;13.588;2022-12-17T06:42:35;-3.30;99.99
68977;SHT31;56029;52.568;13.588;2022-12-17T06:45:19;-3.31;99.99
68977;SHT31;56029;52.568;13.588;2022-12-17T06:48:05;-3.31;99.99
68977;SHT31;56029;52.568;13.588;2022-12-17T06:50:54;-3.34;99.99
68977;SHT31;56029;52.568;13.588;2022-12-17T06:53:39;-3.38;99.99
68977;SHT31;56029;52.568;13.588;2022-12-17T06:56:23;-3.41;99.99
68977;SHT31;56029;52.568;13.588;2022-12-17T06:59:08;-3.45;99.99
68977;SHT31;56029;52.568;13.588;2022-12-17T07:01:52;-3.38;99.99
68977;SHT31;56029;52.568;13.588;2022-12-17T07:04:36;-3.48;99.99
68977;SHT31;56029;52.568;13.588;2022-12-17T07:07:20;-3.47;99.99
68977;SHT31;56029;52.568;13.588;2022-12-17T07:10:21;-3.45;99.99
68977;SHT31;56029;52.568;13.588;2022-12-17T07:13:06;-3.47;99.99
68977;SHT31;56029;52.568;13.588;2022-12-17T07:15:51;-3.65;99.99
68977;SHT31;56029;52.568;13.588;2022-12-17T07:18:35;-3.66;99.99
68977;SHT31;56029;52.568;13.588;2022-12-17T07:21:19;-3.62;99.99
68977;SHT31;56029;52.568;13.588;2022-12-17T07:24:07;-3.58;99.99
68977;SHT31;56029;52.568;13.588;2022-12-17T07:26:52;-3.56;99.99
68977;SHT31;56029;52.568;13.588;2022-12-17T07:29:36;-3.65;99.99
68977;SHT31;56029;52.568;13.588;2022-12-17T07:32:20;-3.61;99.99
68977;SHT31;56029;52.568;13.588;2022-12-17T07:35:05;-3.52;99.99
68977;SHT31;56029;52.568;13.588;2022-12-17T07:38:01;-3.45;99.99
68977;SHT31;56029;52.568;13.588;2022-12-17T07:40:46;-3.58;99.99
68977;SHT31;56029;52.568;13.588;2022-12-17T07:43:30;-3.54;99.99
68977;SHT31;56029;52.568;13.588;2022-12-17T07:46:15;-3.48;99.99
68977;SHT31;56029;52.568;13.588;2022-12-17T07:48:59;-3.55;99.99
68977;SHT31;56029;52.568;13.588;2022-12-17T07:51:43;-3.55;99.99
68977;SHT31;56029;52.568;13.588;2022-12-17T07:54:27;-3.55;99.99
68977;SHT31;56029;52.568;13.588;2022-12-17T07:57:12;-3.55;99.99
68977;SHT31;56029;52.568;13.588;2022-12-17T07:59:56;-3.45;99.99
68977;SHT31;56029;52.568;13.588;2022-12-17T08:02:40;-3.49;99.99
68977;SHT31;56029;52.568;13.588;2022-12-17T08:05:24;-3.38;99.99
68977;SHT31;56029;52.568;13.588;2022-12-17T08:08:10;-3.28;99.99
68977;SHT31;56029;52.568;13.588;2022-12-17T08:10:54;-3.31;99.99
68977;SHT31;56029;52.568;13.588;2022-12-17T08:13:39;-3.34;99.99
68977;SHT31;56029;52.568;13.588;2022-12-17T08:16:22;-3.45;99.99
68977;SHT31;56029;52.568;13.588;2022-12-17T08:19:07;-3.55;99.99
68977;SHT31;56029;52.568;13.588;2022-12-17T08:21:51;-3.52;99.99
68977;SHT31;56029;52.568;13.588;2022-12-17T08:24:35;-3.47;99.99
68977;SHT31;56029;52.568;13.588;2022-12-17T08:27:19;-3.42;99.99
68977;SHT31;56029;52.568;13.588;2022-12-17T08:30:05;-3.35;99.99
68977;SHT31;56029;52.568;13.588;2022-12-17T08:32:49;-3.40;99.99
68977;SHT31;56029;52.568;13.588;2022-12-17T08:35:33;-3.37;99.99
68977;SHT31;56029;52.568;13.588;2022-12-17T08:38:17;-3.35;99.99
68977;SHT31;56029;52.568;13.588;2022-12-17T08:41:01;-3.47;99.99
68977;SHT31;56029;52.568;13.588;2022-12-17T08:43:46;-3.49;99.99
68977;SHT31;56029;52.568;13.588;2022-12-17T08:46:30;-3.51;99.99
68977;SHT31;56029;52.568;13.588;2022-12-17T08:49:14;-3.45;99.99
68977;SHT31;56029;52.568;13.588;2022-12-17T08:51:59;-3.42;99.99
68977;SHT31;56029;52.568;13.588;2022-12-17T08:54:43;-3.48;99.99
68977;SHT31;56029;52.568;13.588;2022-12-17T08:57:27;-3.49;99.99
68977;SHT31;56029;52.568;13.588;2022-12-17T09:00:12;-3.45;99.99
68977;SHT31;56029;52.568;13.588;2022-12-17T09:02:59;-3.42;99.99
68977;SHT31;56029;52.568;13.588;2022-12-17T09:05:43;-3.40;99.99
68977;SHT31;56029;52.568;13.588;2022-12-17T09:08:27;-3.41;99.99
68977;SHT31;56029;52.568;13.588;2022-12-17T09:11:11;-3.41;99.99
68977;SHT31;56029;52.568;13.588;2022-12-17T09:13:55;-3.45;99.99
68977;SHT31;56029;52.568;13.588;2022-12-17T09:16:40;-3.30;99.99
68977;SHT31;56029;52.568;13.588;2022-12-17T09:19:24;-3.15;99.99
68977;SHT31;56029;52.568;13.588;2022-12-17T09:22:08;-3.20;99.99
68977;SHT31;56029;52.568;13.588;2022-12-17T09:24:52;-3.21;99.99
68977;SHT31;56029;52.568;13.588;2022-12-17T09:27:36;-3.22;99.99
68977;SHT31;56029;52.568;13.588;2022-12-17T09:30:20;-3.24;99.99
68977;SHT31;56029;52.568;13.588;2022-12-17T09:33:04;-3.17;99.99
68977;SHT31;56029;52.568;13.588;2022-12-17T09:35:49;-3.24;99.99
68977;SHT31;56029;52.568;13.588;2022-12-17T09:38:33;-3.34;99.99
68977;SHT31;56029;52.568;13.588;2022-12-17T09:41:25;-3.42;99.99
68977;SHT31;56029;52.568;13.588;2022-12-17T09:44:32;-3.41;99.99
68977;SHT31;56029;52.568;13.588;2022-12-17T09:47:31;-3.38;99.99
68977;SHT31;56029;52.568;13.588;2022-12-17T09:50:17;-3.27;99.99
68977;SHT31;56029;52.568;13.588;2022-12-17T09:53:12;-3.14;99.99
68977;SHT31;56029;52.568;13.588;2022-12-17T09:55:57;-3.25;99.99
68977;SHT31;56029;52.568;13.588;2022-12-17T09:58:42;-3.34;99.99
68977;SHT31;56029;52.568;13.588;2022-12-17T10:01:31;-3.35;99.99
68977;SHT31;56029;52.568;13.588;2022-12-17T10:04:37;-3.20;99.99
68977;SHT31;56029;52.568;13.588;2022-12-17T10:07:24;-3.22;99.99
68977;SHT31;56029;52.568;13.588;2022-12-17T10:10:16;-3.17;99.99
68977;SHT31;56029;52.568;13.588;2022-12-17T10:13:00;-3.14;99.99
68977;SHT31;56029;52.568;13.588;2022-12-17T10:15:44;-3.08;99.99
68977;SHT31;56029;52.568;13.588;2022-12-17T10:18:30;-3.18;99.99
68977;SHT31;56029;52.568;13.588;2022-12-17T10:21:17;-3.15;99.99
68977;SHT31;56029;52.568;13.588;2022-12-17T10:24:06;-3.18;99.99
68977;SHT31;56029;52.568;13.588;2022-12-17T10:26:51;-3.27;99.99
68977;SHT31;56029;52.568;13.588;2022-12-17T10:29:35;-3.34;99.99
68977;SHT31;56029;52.568;13.588;2022-12-17T10:32:22;-3.25;99.99
68977;SHT31;56029;52.568;13.588;2022-12-17T10:35:18;-3.24;99.99
68977;SHT31;56029;52.568;13.588;2022-12-17T10:38:25;-3.18;99.99
68977;SHT31;56029;52.568;13.588;2022-12-17T10:41:42;-3.30;99.99
68977;SHT31;56029;52.568;13.588;2022-12-17T10:44:33;-3.34;99.99
68977;SHT31;56029;52.568;13.588;2022-12-17T10:47:19;-3.27;99.99
68977;SHT31;56029;52.568;13.588;2022-12-17T10:50:09;-3.25;99.99
68977;SHT31;56029;52.568;13.588;2022-12-17T10:52:54;-3.17;99.99
68977;SHT31;56029;52.568;13.588;2022-12-17T10:55:53;-3.11;99.99
68977;SHT31;56029;52.568;13.588;2022-12-17T10:58:43;-3.08;99.99
68977;SHT31;56029;52.568;13.588;2022-12-17T11:01:29;-3.28;99.99
68977;SHT31;56029;52.568;13.588;2022-12-17T11:04:35;-3.22;99.99
68977;SHT31;56029;52.568;13.588;2022-12-17T11:07:20;-3.12;99.99
68977;SHT31;56029;52.568;13.588;2022-12-17T11:10:14;-3.01;99.99
68977;SHT31;56029;52.568;13.588;2022-12-17T11:13:07;-2.90;99.99
68977;SHT31;56029;52.568;13.588;2022-12-17T11:15:53;-2.72;99.99
68977;SHT31;56029;52.568;13.588;2022-12-17T11:18:49;-2.70;99.99
68977;SHT31;56029;52.568;13.588;2022-12-17T11:21:39;-2.79;99.99
68977;SHT31;56029;52.568;13.588;2022-12-17T11:24:26;-2.84;99.99
68977;SHT31;56029;52.568;13.588;2022-12-17T11:27:17;-2.87;99.99
68977;SHT31;56029;52.568;13.588;2022-12-17T11:30:13;-3.01;99.99
68977;SHT31;56029;52.568;13.588;2022-12-17T11:33:17;-3.01;99.99
68977;SHT31;56029;52.568;13.588;2022-12-17T11:36:10;-3.12;99.99
68977;SHT31;56029;52.568;13.588;2022-12-17T11:39:04;-3.14;99.99
68977;SHT31;56029;52.568;13.588;2022-12-17T11:42:17;-3.20;99.99
68977;SHT31;56029;52.568;13.588;2022-12-17T11:45:33;-3.03;99.99
68977;SHT31;56029;52.568;13.588;2022-12-17T11:51:20;-2.66;99.99
68977;SHT31;56029;52.568;13.588;2022-12-17T11:54:21;-2.58;99.99
68977;SHT31;56029;52.568;13.588;2022-12-17T11:57:30;-2.52;99.99
68977;SHT31;56029;52.568;13.588;2022-12-17T12:00:22;-2.42;99.99
68977;SHT31;56029;52.568;13.588;2022-12-17T12:03:48;-2.45;99.99
68977;SHT31;56029;52.568;13.588;2022-12-17T12:06:47;-2.59;99.99
68977;SHT31;56029;52.568;13.588;2022-12-17T12:09:56;-2.69;99.99
68977;SHT31;56029;52.568;13.588;2022-12-17T12:12:50;-2.76;99.99
68977;SHT31;56029;52.568;13.588;2022-12-17T12:15:47;-2.72;99.99
68977;SHT31;56029;52.568;13.588;2022-12-17T12:18:48;-2.82;99.99
68977;SHT31;56029;52.568;13.588;2022-12-17T12:21:38;-2.80;99.99
68977;SHT31;56029;52.568;13.588;2022-12-17T12:24:42;-2.82;99.99
68977;SHT31;56029;52.568;13.588;2022-12-17T12:27:40;-2.72;99.99
68977;SHT31;56029;52.568;13.588;2022-12-17T12:30:35;-2.82;99.99
68977;SHT31;56029;52.568;13.588;2022-12-17T12:33:52;-2.89;99.99
68977;SHT31;56029;52.568;13.588;2022-12-17T12:36:39;-2.99;99.99
68977;SHT31;56029;52.568;13.588;2022-12-17T12:42:43;-2.94;99.99
68977;SHT31;56029;52.568;13.588;2022-12-17T12:45:32;-2.93;99.99
68977;SHT31;56029;52.568;13.588;2022-12-17T12:51:25;-3.11;99.99
68977;SHT31;56029;52.568;13.588;2022-12-17T13:03:31;-2.75;99.99
68977;SHT31;56029;52.568;13.588;2022-12-17T13:06:38;-2.75;99.99
68977;SHT31;56029;52.568;13.588;2022-12-17T13:09:31;-2.77;99.93
68977;SHT31;56029;52.568;13.588;2022-12-17T13:19:59;-2.91;99.99
68977;SHT31;56029;52.568;13.588;2022-12-17T13:22:29;-2.84;99.99
68977;SHT31;56029;52.568;13.588;2022-12-17T13:25:14;-2.86;99.99
68977;SHT31;56029;52.568;13.588;2022-12-17T13:27:40;-2.77;99.99
68977;SHT31;56029;52.568;13.588;2022-12-17T13:37:54;-2.84;99.99
68977;SHT31;56029;52.568;13.588;2022-12-17T13:40:43;-2.84;99.99
68977;SHT31;56029;52.568;13.588;2022-12-17T13:43:16;-2.91;99.99
68977;SHT31;56029;52.568;13.588;2022-12-17T13:45:42;-2.87;99.99
68977;SHT31;56029;52.568;13.588;2022-12-17T13:48:19;-3.00;99.99
68977;SHT31;56029;52.568;13.588;2022-12-17T13:50:53;-3.12;99.99
68977;SHT31;56029;52.568;13.588;2022-12-17T13:53:19;-3.11;99.99
68977;SHT31;56029;52.568;13.588;2022-12-17T13:55:49;-3.18;99.99
68977;SHT31;56029;52.568;13.588;2022-12-17T13:58:30;-3.22;99.99
68977;SHT31;56029;52.568;13.588;2022-12-17T14:01:10;-3.24;99.99
68977;SHT31;56029;52.568;13.588;2022-12-17T14:03:42;-3.27;99.99
68977;SHT31;56029;52.568;13.588;2022-12-17T14:06:09;-3.30;99.99
68977;SHT31;56029;52.568;13.588;2022-12-17T14:08:36;-3.25;99.99
68977;SHT31;56029;52.568;13.588;2022-12-17T14:11:02;-3.18;99.99
68977;SHT31;56029;52.568;13.588;2022-12-17T14:13:47;-3.10;99.99
68977;SHT31;56029;52.568;13.588;2022-12-17T14:16:18;-3.04;99.99
68977;SHT31;56029;52.568;13.588;2022-12-17T14:18:48;-3.05;99.99
68977;SHT31;56029;52.568;13.588;2022-12-17T14:21:14;-3.17;99.99
68977;SHT31;56029;52.568;13.588;2022-12-17T14:23:40;-3.24;99.99
68977;SHT31;56029;52.568;13.588;2022-12-17T14:26:10;-3.27;99.99
68977;SHT31;56029;52.568;13.588;2022-12-17T14:28:48;-3.30;99.99
68977;SHT31;56029;52.568;13.588;2022-12-17T14:31:15;-3.31;99.99
68977;SHT31;56029;52.568;13.588;2022-12-17T14:33:43;-3.34;99.99
68977;SHT31;56029;52.568;13.588;2022-12-17T14:38:50;-3.32;99.99
68977;SHT31;56029;52.568;13.588;2022-12-17T14:41:17;-3.32;99.99
68977;SHT31;56029;52.568;13.588;2022-12-17T14:44:01;-3.34;99.99
68977;SHT31;56029;52.568;13.588;2022-12-17T14:46:28;-3.40;99.99
68977;SHT31;56029;52.568;13.588;2022-12-17T14:48:56;-3.38;99.99
68977;SHT31;56029;52.568;13.588;2022-12-17T14:51:37;-3.42;99.99
68977;SHT31;56029;52.568;13.588;2022-12-17T14:54:49;-3.47;99.99
68977;SHT31;56029;52.568;13.588;2022-12-17T14:56:51;-3.58;99.99
68977;SHT31;56029;52.568;13.588;2022-12-17T14:59:34;-3.62;99.99
68977;SHT31;56029;52.568;13.588;2022-12-17T15:02:03;-3.56;99.99
68977;SHT31;56029;52.568;13.588;2022-12-17T15:04:31;-3.47;99.99
68977;SHT31;56029;52.568;13.588;2022-12-17T15:06:57;-3.44;99.99
68977;SHT31;56029;52.568;13.588;2022-12-17T15:09:23;-3.44;99.99
68977;SHT31;56029;52.568;13.588;2022-12-17T15:11:49;-3.38;99.99
68977;SHT31;56029;52.568;13.588;2022-12-17T15:14:15;-3.25;99.99
68977;SHT31;56029;52.568;13.588;2022-12-17T15:16:40;-3.22;99.99
68977;SHT31;56029;52.568;13.588;2022-12-17T15:19:06;-3.24;99.99
68977;SHT31;56029;52.568;13.588;2022-12-17T15:21:31;-3.18;99.99
68977;SHT31;56029;52.568;13.588;2022-12-17T15:23:57;-3.17;99.99
68977;SHT31;56029;52.568;13.588;2022-12-17T15:26:23;-3.25;99.99
68977;SHT31;56029;52.568;13.588;2022-12-17T15:28:48;-3.34;99.99
68977;SHT31;56029;52.568;13.588;2022-12-17T15:31:14;-3.44;99.99
68977;SHT31;56029;52.568;13.588;2022-12-17T15:33:40;-3.49;99.99
68977;SHT31;56029;52.568;13.588;2022-12-17T15:36:07;-3.52;99.99
68977;SHT31;56029;52.568;13.588;2022-12-17T15:38:33;-3.51;99.99
68977;SHT31;56029;52.568;13.588;2022-12-17T15:40:59;-3.49;99.99
68977;SHT31;56029;52.568;13.588;2022-12-17T15:43:25;-3.52;99.99
68977;SHT31;56029;52.568;13.588;2022-12-17T15:45:51;-3.44;99.99
68977;SHT31;56029;52.568;13.588;2022-12-17T15:48:19;-3.49;99.99
68977;SHT31;56029;52.568;13.588;2022-12-17T15:50:45;-3.47;99.99
68977;SHT31;56029;52.568;13.588;2022-12-17T15:53:11;-3.40;99.99
68977;SHT31;56029;52.568;13.588;2022-12-17T15:55:37;-3.37;99.99
68977;SHT31;56029;52.568;13.588;2022-12-17T15:58:04;-3.27;99.99
68977;SHT31;56029;52.568;13.588;2022-12-17T16:00:30;-3.20;99.99
68977;SHT31;56029;52.568;13.588;2022-12-17T16:02:55;-3.27;99.99
68977;SHT31;56029;52.568;13.588;2022-12-17T16:05:21;-3.20;99.99
68977;SHT31;56029;52.568;13.588;2022-12-17T16:07:48;-3.20;99.99
68977;SHT31;56029;52.568;13.588;2022-12-17T16:10:14;-3.17;99.99
68977;SHT31;56029;52.568;13.588;2022-12-17T16:12:40;-3.18;99.99
68977;SHT31;56029;52.568;13.588;2022-12-17T16:15:06;-3.25;99.99
68977;SHT31;56029;52.568;13.588;2022-12-17T16:17:33;-3.30;99.99
68977;SHT31;56029;52.568;13.588;2022-12-17T16:19:58;-3.34;99.99
68977;SHT31;56029;52.568;13.588;2022-12-17T16:22:26;-3.31;99.99
68977;SHT31;56029;52.568;13.588;2022-12-17T16:24:51;-3.22;99.99
68977;SHT31;56029;52.568;13.588;2022-12-17T16:27:18;-3.21;99.99
68977;SHT31;56029;52.568;13.588;2022-12-17T16:29:44;-3.17;99.99
68977;SHT31;56029;52.568;13.588;2022-12-17T16:32:11;-3.14;99.99
68977;SHT31;56029;52.568;13.588;2022-12-17T16:34:36;-3.11;99.99
68977;SHT31;56029;52.568;13.588;2022-12-17T16:37:02;-3.05;99.99
68977;SHT31;56029;52.568;13.588;2022-12-17T16:39:27;-3.00;99.99
68977;SHT31;56029;52.568;13.588;2022-12-17T16:41:53;-2.96;99.99
68977;SHT31;56029;52.568;13.588;2022-12-17T16:44:19;-2.90;99.99
68977;SHT31;56029;52.568;13.588;2022-12-17T16:46:44;-2.91;99.99
68977;SHT31;56029;52.568;13.588;2022-12-17T16:49:15;-2.83;99.99
68977;SHT31;56029;52.568;13.588;2022-12-17T16:51:41;-2.83;99.99
68977;SHT31;56029;52.568;13.588;2022-12-17T16:54:10;-2.84;99.99
68977;SHT31;56029;52.568;13.588;2022-12-17T16:56:37;-2.77;99.99
68977;SHT31;56029;52.568;13.588;2022-12-17T16:59:04;-2.77;99.99
68977;SHT31;56029;52.568;13.588;2022-12-17T17:01:33;-2.75;99.99
68977;SHT31;56029;52.568;13.588;2022-12-17T17:03:58;-2.70;99.99
68977;SHT31;56029;52.568;13.588;2022-12-17T17:06:25;-2.76;99.99
68977;SHT31;56029;52.568;13.588;2022-12-17T17:08:51;-2.72;99.99
68977;SHT31;56029;52.568;13.588;2022-12-17T17:11:20;-2.72;99.99
68977;SHT31;56029;52.568;13.588;2022-12-17T17:13:53;-2.69;99.99
68977;SHT31;56029;52.568;13.588;2022-12-17T17:16:21;-2.73;99.99
68977;SHT31;56029;52.568;13.588;2022-12-17T17:18:48;-2.79;99.99
68977;SHT31;56029;52.568;13.588;2022-12-17T17:21:32;-2.73;99.99
68977;SHT31;56029;52.568;13.588;2022-12-17T17:23:59;-2.73;99.99
68977;SHT31;56029;52.568;13.588;2022-12-17T17:26:27;-2.69;99.99
68977;SHT31;56029;52.568;13.588;2022-12-17T17:28:53;-2.82;99.98
68977;SHT31;56029;52.568;13.588;2022-12-17T17:31:21;-2.83;99.92